sensor_id;sensor_type;location;lat;lon;timestamp;P1;durP1;ratioP1;P2;durP2;ratioP2
61477;SDS011;47345;52.334;10.392;2023-04-01T00:02:23;2.30;;;1.30;;
61477;SDS011;47345;52.334;10.392;2023-04-01T00:04:54;1.20;;;1.00;;
61477;SDS011;47345;52.334;10.392;2023-04-01T00:07:25;1.10;;;1.10;;
61477;SDS011;47345;52.334;10.392;2023-04-01T00:09:57;2.60;;;1.60;;
61477;SDS011;47345;52.334;10.392;2023-04-01T00:12:28;3.00;;;1.40;;
61477;SDS011;47345;52.334;10.392;2023-04-01T00:14:59;1.60;;;1.30;;
61477;SDS011;47345;52.334;10.392;2023-04-01T00:17:30;1.40;;;1.30;;
61477;SDS011;47345;52.334;10.392;2023-04-01T00:20:01;1.40;;;1.30;;
61477;SDS011;47345;52.334;10.392;2023-04-01T00:22:32;1.50;;;1.20;;
61477;SDS011;47345;52.334;10.392;2023-04-01T00:25:03;1.20;;;1.20;;
61477;SDS011;47345;52.334;10.392;2023-04-01T00:27:36;3.20;;;1.20;;
61477;SDS011;47345;52.334;10.392;2023-04-01T00:30:08;2.20;;;1.30;;
61477;SDS011;47345;52.334;10.392;2023-04-01T00:32:40;2.30;;;1.30;;
61477;SDS011;47345;52.334;10.392;2023-04-01T00:35:11;1.60;;;1.20;;
61477;SDS011;47345;52.334;10.392;2023-04-01T00:37:41;2.00;;;1.40;;
61477;SDS011;47345;52.334;10.392;2023-04-01T00:40:21;2.20;;;1.20;;
61477;SDS011;47345;52.334;10.392;2023-04-01T00:42:55;1.40;;;1.30;;
61477;SDS011;47345;52.334;10.392;2023-04-01T00:45:28;2.60;;;1.50;;
61477;SDS011;47345;52.334;10.392;2023-04-01T00:48:01;1.90;;;1.30;;
61477;SDS011;47345;52.334;10.392;2023-04-01T00:50:35;3.30;;;1.50;;
61477;SDS011;47345;52.334;10.392;2023-04-01T00:53:08;2.50;;;1.50;;
61477;SDS011;47345;52.334;10.392;2023-04-01T00:55:41;1.10;;;1.10;;
61477;SDS011;47345;52.334;10.392;2023-04-01T00:58:18;2.10;;;1.40;;
61477;SDS011;47345;52.334;10.392;2023-04-01T01:00:52;1.30;;;1.20;;
61477;SDS011;47345;52.334;10.392;2023-04-01T01:03:25;1.20;;;1.10;;
61477;SDS011;47345;52.334;10.392;2023-04-01T01:06:03;1.80;;;1.30;;
61477;SDS011;47345;52.334;10.392;2023-04-01T01:08:47;1.20;;;1.20;;
61477;SDS011;47345;52.334;10.392;2023-04-01T01:11:34;1.60;;;1.20;;
61477;SDS011;47345;52.334;10.392;2023-04-01T01:14:12;1.40;;;1.20;;
61477;SDS011;47345;52.334;10.392;2023-04-01T01:16:54;1.40;;;1.30;;
61477;SDS011;47345;52.334;10.392;2023-04-01T01:19:37;1.10;;;1.00;;
61477;SDS011;47345;52.334;10.392;2023-04-01T01:22:23;1.20;;;1.20;;
61477;SDS011;47345;52.334;10.392;2023-04-01T01:25:18;4.00;;;1.20;;
61477;SDS011;47345;52.334;10.392;2023-04-01T01:28:07;1.10;;;1.10;;
61477;SDS011;47345;52.334;10.392;2023-04-01T01:30:56;1.10;;;1.00;;
61477;SDS011;47345;52.334;10.392;2023-04-01T01:36:36;1.20;;;1.20;;
61477;SDS011;47345;52.334;10.392;2023-04-01T01:39:10;2.00;;;1.10;;
61477;SDS011;47345;52.334;10.392;2023-04-01T01:41:43;1.70;;;1.10;;
61477;SDS011;47345;52.334;10.392;2023-04-01T01:44:18;1.10;;;1.00;;
61477;SDS011;47345;52.334;10.392;2023-04-01T01:46:50;1.60;;;1.10;;
61477;SDS011;47345;52.334;10.392;2023-04-01T01:49:20;2.10;;;1.20;;
61477;SDS011;47345;52.334;10.392;2023-04-01T01:51:52;1.60;;;1.10;;
61477;SDS011;47345;52.334;10.392;2023-04-01T01:54:23;1.00;;;1.00;;
61477;SDS011;47345;52.334;10.392;2023-04-01T01:56:55;1.00;;;1.00;;
61477;SDS011;47345;52.334;10.392;2023-04-01T01:59:34;2.10;;;0.80;;
61477;SDS011;47345;52.334;10.392;2023-04-01T02:02:07;1.20;;;1.10;;
61477;SDS011;47345;52.334;10.392;2023-04-01T02:04:39;1.50;;;1.10;;
61477;SDS011;47345;52.334;10.392;2023-04-01T02:07:13;2.80;;;1.00;;
61477;SDS011;47345;52.334;10.392;2023-04-01T02:09:48;1.30;;;1.20;;
61477;SDS011;47345;52.334;10.392;2023-04-01T02:12:20;1.50;;;1.10;;
61477;SDS011;47345;52.334;10.392;2023-04-01T02:14:54;1.10;;;1.10;;
61477;SDS011;47345;52.334;10.392;2023-04-01T02:17:29;1.40;;;1.10;;
61477;SDS011;47345;52.334;10.392;2023-04-01T02:20:03;0.80;;;0.80;;
61477;SDS011;47345;52.334;10.392;2023-04-01T02:22:38;2.50;;;1.60;;
61477;SDS011;47345;52.334;10.392;2023-04-01T02:25:12;1.30;;;1.20;;
61477;SDS011;47345;52.334;10.392;2023-04-01T02:27:45;2.70;;;1.40;;
61477;SDS011;47345;52.334;10.392;2023-04-01T02:30:16;1.00;;;1.00;;
61477;SDS011;47345;52.334;10.392;2023-04-01T02:32:48;4.10;;;1.50;;
61477;SDS011;47345;52.334;10.392;2023-04-01T02:35:19;1.10;;;1.10;;
61477;SDS011;47345;52.334;10.392;2023-04-01T02:37:50;5.10;;;1.30;;
61477;SDS011;47345;52.334;10.392;2023-04-01T02:40:23;1.20;;;1.10;;
61477;SDS011;47345;52.334;10.392;2023-04-01T02:42:54;1.30;;;1.20;;
61477;SDS011;47345;52.334;10.392;2023-04-01T02:45:24;2.80;;;1.60;;
61477;SDS011;47345;52.334;10.392;2023-04-01T02:47:55;1.60;;;1.40;;
61477;SDS011;47345;52.334;10.392;2023-04-01T02:50:25;1.40;;;1.30;;
61477;SDS011;47345;52.334;10.392;2023-04-01T02:52:56;3.20;;;1.50;;
61477;SDS011;47345;52.334;10.392;2023-04-01T02:55:27;1.50;;;1.30;;
61477;SDS011;47345;52.334;10.392;2023-04-01T02:57:59;1.20;;;1.20;;
61477;SDS011;47345;52.334;10.392;2023-04-01T03:00:30;1.20;;;1.20;;
61477;SDS011;47345;52.334;10.392;2023-04-01T03:03:00;1.80;;;1.50;;
61477;SDS011;47345;52.334;10.392;2023-04-01T03:05:31;1.40;;;1.30;;
61477;SDS011;47345;52.334;10.392;2023-04-01T03:08:02;2.40;;;1.40;;
61477;SDS011;47345;52.334;10.392;2023-04-01T03:10:33;1.60;;;1.50;;
61477;SDS011;47345;52.334;10.392;2023-04-01T03:13:04;1.70;;;1.60;;
61477;SDS011;47345;52.334;10.392;2023-04-01T03:15:35;1.50;;;1.40;;
61477;SDS011;47345;52.334;10.392;2023-04-01T03:18:05;1.60;;;1.50;;
61477;SDS011;47345;52.334;10.392;2023-04-01T03:20:36;1.30;;;1.30;;
61477;SDS011;47345;52.334;10.392;2023-04-01T03:23:08;1.70;;;1.60;;
61477;SDS011;47345;52.334;10.392;2023-04-01T03:25:39;1.80;;;1.20;;
61477;SDS011;47345;52.334;10.392;2023-04-01T03:28:09;2.00;;;1.60;;
61477;SDS011;47345;52.334;10.392;2023-04-01T03:30:41;1.40;;;1.30;;
61477;SDS011;47345;52.334;10.392;2023-04-01T03:33:12;2.90;;;1.60;;
61477;SDS011;47345;52.334;10.392;2023-04-01T03:35:42;1.90;;;1.50;;
61477;SDS011;47345;52.334;10.392;2023-04-01T03:38:13;1.80;;;1.30;;
61477;SDS011;47345;52.334;10.392;2023-04-01T03:40:45;1.60;;;1.50;;
61477;SDS011;47345;52.334;10.392;2023-04-01T03:43:15;1.40;;;1.30;;
61477;SDS011;47345;52.334;10.392;2023-04-01T03:45:46;2.10;;;1.60;;
61477;SDS011;47345;52.334;10.392;2023-04-01T03:48:19;1.90;;;1.60;;
61477;SDS011;47345;52.334;10.392;2023-04-01T03:50:49;1.60;;;1.50;;
61477;SDS011;47345;52.334;10.392;2023-04-01T03:53:20;1.60;;;1.40;;
61477;SDS011;47345;52.334;10.392;2023-04-01T03:55:51;2.70;;;1.60;;
61477;SDS011;47345;52.334;10.392;2023-04-01T03:58:22;1.00;;;1.00;;
61477;SDS011;47345;52.334;10.392;2023-04-01T04:00:53;1.90;;;1.70;;
61477;SDS011;47345;52.334;10.392;2023-04-01T04:03:23;1.40;;;1.30;;
61477;SDS011;47345;52.334;10.392;2023-04-01T04:05:54;1.50;;;1.40;;
61477;SDS011;47345;52.334;10.392;2023-04-01T04:08:26;1.30;;;1.10;;
61477;SDS011;47345;52.334;10.392;2023-04-01T04:10:56;1.50;;;1.20;;
61477;SDS011;47345;52.334;10.392;2023-04-01T04:13:27;1.10;;;1.00;;
61477;SDS011;47345;52.334;10.392;2023-04-01T04:15:58;1.60;;;1.50;;
61477;SDS011;47345;52.334;10.392;2023-04-01T04:18:28;2.00;;;1.50;;
61477;SDS011;47345;52.334;10.392;2023-04-01T04:20:59;1.60;;;1.50;;
61477;SDS011;47345;52.334;10.392;2023-04-01T04:23:29;1.70;;;1.50;;
61477;SDS011;47345;52.334;10.392;2023-04-01T04:26:02;4.00;;;1.60;;
61477;SDS011;47345;52.334;10.392;2023-04-01T04:28:34;1.60;;;1.50;;
61477;SDS011;47345;52.334;10.392;2023-04-01T04:31:05;2.60;;;1.60;;
61477;SDS011;47345;52.334;10.392;2023-04-01T04:33:36;3.10;;;1.40;;
61477;SDS011;47345;52.334;10.392;2023-04-01T04:36:07;1.10;;;1.10;;
61477;SDS011;47345;52.334;10.392;2023-04-01T04:38:38;5.50;;;2.00;;
61477;SDS011;47345;52.334;10.392;2023-04-01T04:41:09;2.70;;;1.40;;
61477;SDS011;47345;52.334;10.392;2023-04-01T04:43:41;1.30;;;1.30;;
61477;SDS011;47345;52.334;10.392;2023-04-01T04:46:17;1.20;;;1.20;;
61477;SDS011;47345;52.334;10.392;2023-04-01T04:48:49;1.40;;;1.30;;
61477;SDS011;47345;52.334;10.392;2023-04-01T04:51:20;1.30;;;1.20;;
61477;SDS011;47345;52.334;10.392;2023-04-01T04:53:51;1.50;;;1.40;;
61477;SDS011;47345;52.334;10.392;2023-04-01T04:56:22;1.30;;;1.20;;
61477;SDS011;47345;52.334;10.392;2023-04-01T04:58:53;1.20;;;1.20;;
61477;SDS011;47345;52.334;10.392;2023-04-01T05:01:25;1.90;;;1.30;;
61477;SDS011;47345;52.334;10.392;2023-04-01T05:03:55;2.40;;;1.90;;
61477;SDS011;47345;52.334;10.392;2023-04-01T05:06:26;2.10;;;1.60;;
61477;SDS011;47345;52.334;10.392;2023-04-01T05:08:57;1.40;;;1.30;;
61477;SDS011;47345;52.334;10.392;2023-04-01T05:11:28;1.30;;;1.20;;
61477;SDS011;47345;52.334;10.392;2023-04-01T05:13:59;1.80;;;1.30;;
61477;SDS011;47345;52.334;10.392;2023-04-01T05:16:29;1.30;;;1.20;;
61477;SDS011;47345;52.334;10.392;2023-04-01T05:19:00;1.30;;;1.20;;
61477;SDS011;47345;52.334;10.392;2023-04-01T05:21:31;1.30;;;1.20;;
61477;SDS011;47345;52.334;10.392;2023-04-01T05:24:03;2.30;;;1.60;;
61477;SDS011;47345;52.334;10.392;2023-04-01T05:26:35;1.50;;;1.30;;
61477;SDS011;47345;52.334;10.392;2023-04-01T05:29:06;1.20;;;1.20;;
61477;SDS011;47345;52.334;10.392;2023-04-01T05:31:37;0.90;;;0.90;;
61477;SDS011;47345;52.334;10.392;2023-04-01T05:34:07;1.10;;;1.10;;
61477;SDS011;47345;52.334;10.392;2023-04-01T05:36:38;6.20;;;2.90;;
61477;SDS011;47345;52.334;10.392;2023-04-01T05:39:09;1.80;;;1.60;;
61477;SDS011;47345;52.334;10.392;2023-04-01T05:41:40;1.30;;;1.10;;
61477;SDS011;47345;52.334;10.392;2023-04-01T05:44:11;1.30;;;1.20;;
61477;SDS011;47345;52.334;10.392;2023-04-01T05:46:41;1.40;;;1.30;;
61477;SDS011;47345;52.334;10.392;2023-04-01T05:49:12;1.40;;;1.10;;
61477;SDS011;47345;52.334;10.392;2023-04-01T05:51:43;1.60;;;1.30;;
61477;SDS011;47345;52.334;10.392;2023-04-01T05:54:14;2.00;;;1.30;;
61477;SDS011;47345;52.334;10.392;2023-04-01T05:56:44;2.30;;;1.40;;
61477;SDS011;47345;52.334;10.392;2023-04-01T05:59:16;1.10;;;1.10;;
61477;SDS011;47345;52.334;10.392;2023-04-01T06:01:47;1.20;;;1.10;;
61477;SDS011;47345;52.334;10.392;2023-04-01T06:04:17;1.90;;;1.40;;
61477;SDS011;47345;52.334;10.392;2023-04-01T06:06:48;2.80;;;1.10;;
61477;SDS011;47345;52.334;10.392;2023-04-01T06:09:20;1.30;;;1.10;;
61477;SDS011;47345;52.334;10.392;2023-04-01T06:18:25;1.30;;;1.20;;
61477;SDS011;47345;52.334;10.392;2023-04-01T06:21:37;1.20;;;1.10;;
61477;SDS011;47345;52.334;10.392;2023-04-01T06:24:30;3.10;;;1.20;;
61477;SDS011;47345;52.334;10.392;2023-04-01T06:27:29;1.50;;;1.00;;
61477;SDS011;47345;52.334;10.392;2023-04-01T06:41:58;1.70;;;1.20;;
61477;SDS011;47345;52.334;10.392;2023-04-01T06:44:51;1.40;;;1.30;;
61477;SDS011;47345;52.334;10.392;2023-04-01T06:47:36;1.50;;;1.30;;
61477;SDS011;47345;52.334;10.392;2023-04-01T06:50:19;1.40;;;1.30;;
61477;SDS011;47345;52.334;10.392;2023-04-01T06:52:57;1.40;;;1.30;;
61477;SDS011;47345;52.334;10.392;2023-04-01T06:55:36;2.60;;;1.50;;
61477;SDS011;47345;52.334;10.392;2023-04-01T06:58:13;1.40;;;1.30;;
61477;SDS011;47345;52.334;10.392;2023-04-01T07:00:53;1.10;;;1.10;;
61477;SDS011;47345;52.334;10.392;2023-04-01T07:04:26;2.00;;;1.50;;
61477;SDS011;47345;52.334;10.392;2023-04-01T07:07:05;1.30;;;1.20;;
61477;SDS011;47345;52.334;10.392;2023-04-01T07:09:49;1.50;;;1.20;;
61477;SDS011;47345;52.334;10.392;2023-04-01T07:12:24;4.70;;;1.20;;
61477;SDS011;47345;52.334;10.392;2023-04-01T07:15:06;2.60;;;1.40;;
61477;SDS011;47345;52.334;10.392;2023-04-01T07:17:45;2.30;;;1.00;;
61477;SDS011;47345;52.334;10.392;2023-04-01T07:20:22;1.20;;;1.10;;
61477;SDS011;47345;52.334;10.392;2023-04-01T07:22:56;2.20;;;1.00;;
61477;SDS011;47345;52.334;10.392;2023-04-01T07:25:29;1.50;;;1.30;;
61477;SDS011;47345;52.334;10.392;2023-04-01T07:28:06;0.90;;;0.90;;
61477;SDS011;47345;52.334;10.392;2023-04-01T07:30:47;3.00;;;1.30;;
61477;SDS011;47345;52.334;10.392;2023-04-01T07:33:25;1.40;;;1.30;;
61477;SDS011;47345;52.334;10.392;2023-04-01T07:36:07;1.00;;;1.00;;
61477;SDS011;47345;52.334;10.392;2023-04-01T07:38:48;1.30;;;1.20;;
61477;SDS011;47345;52.334;10.392;2023-04-01T07:41:29;3.70;;;1.10;;
61477;SDS011;47345;52.334;10.392;2023-04-01T07:44:10;2.50;;;1.20;;
61477;SDS011;47345;52.334;10.392;2023-04-01T07:46:58;2.00;;;1.20;;
61477;SDS011;47345;52.334;10.392;2023-04-01T07:49:40;0.90;;;0.90;;
61477;SDS011;47345;52.334;10.392;2023-04-01T07:52:22;7.00;;;1.40;;
61477;SDS011;47345;52.334;10.392;2023-04-01T07:54:59;1.30;;;0.90;;
61477;SDS011;47345;52.334;10.392;2023-04-01T07:57:40;1.20;;;1.10;;
61477;SDS011;47345;52.334;10.392;2023-04-01T08:00:17;0.70;;;0.70;;
61477;SDS011;47345;52.334;10.392;2023-04-01T08:05:53;4.80;;;1.30;;
61477;SDS011;47345;52.334;10.392;2023-04-01T08:08:29;2.30;;;1.00;;
61477;SDS011;47345;52.334;10.392;2023-04-01T08:11:12;3.50;;;1.20;;
61477;SDS011;47345;52.334;10.392;2023-04-01T08:13:53;1.50;;;1.20;;
61477;SDS011;47345;52.334;10.392;2023-04-01T08:16:33;1.50;;;1.30;;
61477;SDS011;47345;52.334;10.392;2023-04-01T08:19:14;1.30;;;1.20;;
61477;SDS011;47345;52.334;10.392;2023-04-01T08:21:51;1.10;;;1.00;;
61477;SDS011;47345;52.334;10.392;2023-04-01T08:24:33;0.90;;;0.90;;
61477;SDS011;47345;52.334;10.392;2023-04-01T08:27:15;1.50;;;1.00;;
61477;SDS011;47345;52.334;10.392;2023-04-01T08:29:51;1.10;;;0.90;;
61477;SDS011;47345;52.334;10.392;2023-04-01T08:32:30;0.90;;;0.90;;
61477;SDS011;47345;52.334;10.392;2023-04-01T08:35:09;0.80;;;0.80;;
61477;SDS011;47345;52.334;10.392;2023-04-01T08:37:46;0.90;;;0.90;;
61477;SDS011;47345;52.334;10.392;2023-04-01T08:40:37;1.40;;;1.10;;
61477;SDS011;47345;52.334;10.392;2023-04-01T08:43:22;1.10;;;0.80;;
61477;SDS011;47345;52.334;10.392;2023-04-01T08:46:14;0.70;;;0.70;;
61477;SDS011;47345;52.334;10.392;2023-04-01T08:49:06;0.90;;;0.90;;
61477;SDS011;47345;52.334;10.392;2023-04-01T08:51:51;1.00;;;0.90;;
61477;SDS011;47345;52.334;10.392;2023-04-01T08:54:47;2.00;;;0.80;;
61477;SDS011;47345;52.334;10.392;2023-04-01T08:57:35;0.80;;;0.80;;
61477;SDS011;47345;52.334;10.392;2023-04-01T09:00:20;2.30;;;0.70;;
61477;SDS011;47345;52.334;10.392;2023-04-01T09:03:12;0.80;;;0.60;;
61477;SDS011;47345;52.334;10.392;2023-04-01T09:06:00;0.80;;;0.80;;
61477;SDS011;47345;52.334;10.392;2023-04-01T09:08:46;1.10;;;1.00;;
61477;SDS011;47345;52.334;10.392;2023-04-01T09:11:33;1.10;;;1.00;;
61477;SDS011;47345;52.334;10.392;2023-04-01T09:14:28;1.10;;;0.90;;
61477;SDS011;47345;52.334;10.392;2023-04-01T09:20:19;0.60;;;0.60;;
61477;SDS011;47345;52.334;10.392;2023-04-01T09:23:05;0.70;;;0.70;;
61477;SDS011;47345;52.334;10.392;2023-04-01T09:25:50;1.50;;;0.80;;
61477;SDS011;47345;52.334;10.392;2023-04-01T09:28:28;0.60;;;0.60;;
61477;SDS011;47345;52.334;10.392;2023-04-01T09:31:12;0.60;;;0.60;;
61477;SDS011;47345;52.334;10.392;2023-04-01T09:37:06;0.90;;;0.90;;
61477;SDS011;47345;52.334;10.392;2023-04-01T09:42:45;1.00;;;0.70;;
61477;SDS011;47345;52.334;10.392;2023-04-01T09:45:35;2.40;;;0.80;;
61477;SDS011;47345;52.334;10.392;2023-04-01T09:48:17;0.60;;;0.60;;
61477;SDS011;47345;52.334;10.392;2023-04-01T09:51:02;0.60;;;0.60;;
61477;SDS011;47345;52.334;10.392;2023-04-01T09:53:48;0.50;;;0.50;;
61477;SDS011;47345;52.334;10.392;2023-04-01T09:56:39;2.00;;;0.60;;
61477;SDS011;47345;52.334;10.392;2023-04-01T10:09:26;1.00;;;0.50;;
61477;SDS011;47345;52.334;10.392;2023-04-01T10:12:38;1.30;;;1.20;;
61477;SDS011;47345;52.334;10.392;2023-04-01T10:15:48;1.00;;;1.00;;
61477;SDS011;47345;52.334;10.392;2023-04-01T10:18:54;1.60;;;0.90;;
61477;SDS011;47345;52.334;10.392;2023-04-01T10:22:02;0.90;;;0.90;;
61477;SDS011;47345;52.334;10.392;2023-04-01T10:24:50;0.60;;;0.60;;
61477;SDS011;47345;52.334;10.392;2023-04-01T10:27:43;1.50;;;0.70;;
61477;SDS011;47345;52.334;10.392;2023-04-01T10:30:42;0.80;;;0.70;;
61477;SDS011;47345;52.334;10.392;2023-04-01T10:33:38;0.70;;;0.70;;
61477;SDS011;47345;52.334;10.392;2023-04-01T10:36:37;0.60;;;0.60;;
61477;SDS011;47345;52.334;10.392;2023-04-01T10:42:47;0.70;;;0.70;;
61477;SDS011;47345;52.334;10.392;2023-04-01T10:55:16;0.70;;;0.70;;
61477;SDS011;47345;52.334;10.392;2023-04-01T11:01:27;0.50;;;0.50;;
61477;SDS011;47345;52.334;10.392;2023-04-01T11:07:57;1.90;;;1.00;;
61477;SDS011;47345;52.334;10.392;2023-04-01T11:20:15;0.70;;;0.70;;
61477;SDS011;47345;52.334;10.392;2023-04-01T11:23:09;1.10;;;0.70;;
61477;SDS011;47345;52.334;10.392;2023-04-01T11:26:07;0.60;;;0.60;;
61477;SDS011;47345;52.334;10.392;2023-04-01T11:31:50;1.60;;;0.90;;
61477;SDS011;47345;52.334;10.392;2023-04-01T11:34:38;1.20;;;0.90;;
61477;SDS011;47345;52.334;10.392;2023-04-01T11:37:36;1.80;;;0.80;;
61477;SDS011;47345;52.334;10.392;2023-04-01T11:40:17;1.20;;;1.00;;
61477;SDS011;47345;52.334;10.392;2023-04-01T11:42:57;1.00;;;1.00;;
61477;SDS011;47345;52.334;10.392;2023-04-01T11:45:51;0.90;;;0.80;;
61477;SDS011;47345;52.334;10.392;2023-04-01T11:51:40;2.80;;;1.10;;
61477;SDS011;47345;52.334;10.392;2023-04-01T11:57:34;1.90;;;1.70;;
61477;SDS011;47345;52.334;10.392;2023-04-01T12:00:18;4.30;;;2.50;;
61477;SDS011;47345;52.334;10.392;2023-04-01T12:03:07;2.30;;;1.70;;
61477;SDS011;47345;52.334;10.392;2023-04-01T12:05:53;2.10;;;1.60;;
61477;SDS011;47345;52.334;10.392;2023-04-01T12:08:31;1.80;;;1.60;;
61477;SDS011;47345;52.334;10.392;2023-04-01T12:11:14;1.80;;;1.60;;
61477;SDS011;47345;52.334;10.392;2023-04-01T12:13:52;3.20;;;1.90;;
61477;SDS011;47345;52.334;10.392;2023-04-01T12:16:39;5.60;;;1.90;;
61477;SDS011;47345;52.334;10.392;2023-04-01T12:19:28;2.20;;;1.90;;
61477;SDS011;47345;52.334;10.392;2023-04-01T12:22:15;2.40;;;1.90;;
61477;SDS011;47345;52.334;10.392;2023-04-01T12:24:55;5.10;;;2.20;;
61477;SDS011;47345;52.334;10.392;2023-04-01T12:27:40;5.50;;;1.80;;
61477;SDS011;47345;52.334;10.392;2023-04-01T12:33:17;5.70;;;2.30;;
61477;SDS011;47345;52.334;10.392;2023-04-01T12:36:10;5.90;;;2.20;;
61477;SDS011;47345;52.334;10.392;2023-04-01T12:39:01;5.00;;;1.90;;
61477;SDS011;47345;52.334;10.392;2023-04-01T12:41:48;2.80;;;1.80;;
61477;SDS011;47345;52.334;10.392;2023-04-01T12:44:31;5.80;;;1.90;;
61477;SDS011;47345;52.334;10.392;2023-04-01T12:50:25;3.80;;;1.90;;
61477;SDS011;47345;52.334;10.392;2023-04-01T12:53:05;2.50;;;1.50;;
61477;SDS011;47345;52.334;10.392;2023-04-01T12:55:59;2.30;;;1.70;;
61477;SDS011;47345;52.334;10.392;2023-04-01T12:58:53;3.20;;;1.80;;
61477;SDS011;47345;52.334;10.392;2023-04-01T13:04:55;1.40;;;1.20;;
61477;SDS011;47345;52.334;10.392;2023-04-01T13:07:53;3.70;;;1.30;;
61477;SDS011;47345;52.334;10.392;2023-04-01T13:10:47;1.20;;;1.10;;
61477;SDS011;47345;52.334;10.392;2023-04-01T13:13:44;1.20;;;1.10;;
61477;SDS011;47345;52.334;10.392;2023-04-01T13:16:29;1.90;;;1.30;;
61477;SDS011;47345;52.334;10.392;2023-04-01T13:19:06;1.10;;;1.10;;
61477;SDS011;47345;52.334;10.392;2023-04-01T13:21:50;8.80;;;5.20;;
61477;SDS011;47345;52.334;10.392;2023-04-01T13:24:36;1.70;;;1.60;;
61477;SDS011;47345;52.334;10.392;2023-04-01T13:27:20;2.00;;;1.60;;
61477;SDS011;47345;52.334;10.392;2023-04-01T13:30:12;1.90;;;1.80;;
61477;SDS011;47345;52.334;10.392;2023-04-01T13:32:56;3.00;;;2.10;;
61477;SDS011;47345;52.334;10.392;2023-04-01T13:35:36;2.40;;;1.70;;
61477;SDS011;47345;52.334;10.392;2023-04-01T13:38:26;1.80;;;1.70;;
61477;SDS011;47345;52.334;10.392;2023-04-01T13:41:20;3.40;;;1.80;;
61477;SDS011;47345;52.334;10.392;2023-04-01T13:44:02;1.70;;;1.50;;
61477;SDS011;47345;52.334;10.392;2023-04-01T13:46:54;1.70;;;1.60;;
61477;SDS011;47345;52.334;10.392;2023-04-01T13:49:45;2.90;;;2.60;;
61477;SDS011;47345;52.334;10.392;2023-04-01T13:52:34;3.40;;;2.50;;
61477;SDS011;47345;52.334;10.392;2023-04-01T13:55:27;2.60;;;2.40;;
61477;SDS011;47345;52.334;10.392;2023-04-01T13:58:07;3.30;;;2.60;;
61477;SDS011;47345;52.334;10.392;2023-04-01T14:00:55;2.30;;;2.10;;
61477;SDS011;47345;52.334;10.392;2023-04-01T14:03:37;3.70;;;2.40;;
61477;SDS011;47345;52.334;10.392;2023-04-01T14:06:28;2.30;;;2.10;;
61477;SDS011;47345;52.334;10.392;2023-04-01T14:09:19;2.00;;;1.90;;
61477;SDS011;47345;52.334;10.392;2023-04-01T14:12:11;2.60;;;1.90;;
61477;SDS011;47345;52.334;10.392;2023-04-01T14:14:55;2.20;;;2.00;;
61477;SDS011;47345;52.334;10.392;2023-04-01T14:17:52;3.00;;;2.70;;
61477;SDS011;47345;52.334;10.392;2023-04-01T14:20:38;6.10;;;2.30;;
61477;SDS011;47345;52.334;10.392;2023-04-01T14:26:32;2.20;;;2.00;;
61477;SDS011;47345;52.334;10.392;2023-04-01T14:29:14;1.70;;;1.60;;
61477;SDS011;47345;52.334;10.392;2023-04-01T14:31:57;2.50;;;2.00;;
61477;SDS011;47345;52.334;10.392;2023-04-01T14:34:43;2.10;;;1.80;;
61477;SDS011;47345;52.334;10.392;2023-04-01T14:37:34;2.10;;;1.90;;
61477;SDS011;47345;52.334;10.392;2023-04-01T14:40:28;2.40;;;2.10;;
61477;SDS011;47345;52.334;10.392;2023-04-01T14:43:16;2.30;;;2.10;;
61477;SDS011;47345;52.334;10.392;2023-04-01T14:49:15;2.50;;;2.20;;
61477;SDS011;47345;52.334;10.392;2023-04-01T14:51:50;1.90;;;1.80;;
61477;SDS011;47345;52.334;10.392;2023-04-01T14:54:30;1.90;;;1.60;;
61477;SDS011;47345;52.334;10.392;2023-04-01T14:57:05;2.10;;;1.90;;
61477;SDS011;47345;52.334;10.392;2023-04-01T14:59:46;1.50;;;1.40;;
61477;SDS011;47345;52.334;10.392;2023-04-01T15:02:27;1.70;;;1.60;;
61477;SDS011;47345;52.334;10.392;2023-04-01T15:05:13;2.60;;;1.60;;
61477;SDS011;47345;52.334;10.392;2023-04-01T15:07:58;1.70;;;1.60;;
61477;SDS011;47345;52.334;10.392;2023-04-01T15:10:45;2.60;;;2.00;;
61477;SDS011;47345;52.334;10.392;2023-04-01T15:13:33;2.20;;;2.00;;
61477;SDS011;47345;52.334;10.392;2023-04-01T15:16:24;1.70;;;1.60;;
61477;SDS011;47345;52.334;10.392;2023-04-01T15:19:03;1.60;;;1.50;;
61477;SDS011;47345;52.334;10.392;2023-04-01T15:21:58;1.80;;;1.70;;
61477;SDS011;47345;52.334;10.392;2023-04-01T15:24:43;2.10;;;1.90;;
61477;SDS011;47345;52.334;10.392;2023-04-01T15:27:36;2.10;;;1.50;;
61477;SDS011;47345;52.334;10.392;2023-04-01T15:30:17;1.80;;;1.70;;
61477;SDS011;47345;52.334;10.392;2023-04-01T15:36:04;2.30;;;1.80;;
61477;SDS011;47345;52.334;10.392;2023-04-01T15:38:46;1.90;;;1.80;;
61477;SDS011;47345;52.334;10.392;2023-04-01T15:41:22;2.10;;;1.80;;
61477;SDS011;47345;52.334;10.392;2023-04-01T15:43:57;2.10;;;1.90;;
61477;SDS011;47345;52.334;10.392;2023-04-01T15:46:36;2.20;;;2.00;;
61477;SDS011;47345;52.334;10.392;2023-04-01T15:49:19;2.20;;;2.00;;
61477;SDS011;47345;52.334;10.392;2023-04-01T15:52:05;2.30;;;2.10;;
61477;SDS011;47345;52.334;10.392;2023-04-01T15:54:47;2.10;;;1.90;;
61477;SDS011;47345;52.334;10.392;2023-04-01T15:57:45;2.20;;;1.70;;
61477;SDS011;47345;52.334;10.392;2023-04-01T16:00:27;3.70;;;2.10;;
61477;SDS011;47345;52.334;10.392;2023-04-01T16:03:09;2.60;;;2.20;;
61477;SDS011;47345;52.334;10.392;2023-04-01T16:05:58;2.50;;;2.10;;
61477;SDS011;47345;52.334;10.392;2023-04-01T16:08:51;1.90;;;1.70;;
61477;SDS011;47345;52.334;10.392;2023-04-01T16:11:40;2.00;;;1.50;;
61477;SDS011;47345;52.334;10.392;2023-04-01T16:14:21;2.00;;;1.60;;
61477;SDS011;47345;52.334;10.392;2023-04-01T16:17:09;1.80;;;1.70;;
61477;SDS011;47345;52.334;10.392;2023-04-01T16:19:51;1.70;;;1.60;;
61477;SDS011;47345;52.334;10.392;2023-04-01T16:22:25;1.80;;;1.70;;
61477;SDS011;47345;52.334;10.392;2023-04-01T16:25:05;1.70;;;1.50;;
61477;SDS011;47345;52.334;10.392;2023-04-01T16:27:58;1.50;;;1.40;;
61477;SDS011;47345;52.334;10.392;2023-04-01T16:30:43;1.80;;;1.70;;
61477;SDS011;47345;52.334;10.392;2023-04-01T16:33:20;2.00;;;1.90;;
61477;SDS011;47345;52.334;10.392;2023-04-01T16:35:57;1.90;;;1.80;;
61477;SDS011;47345;52.334;10.392;2023-04-01T16:38:38;1.70;;;1.60;;
61477;SDS011;47345;52.334;10.392;2023-04-01T16:41:18;1.40;;;1.30;;
61477;SDS011;47345;52.334;10.392;2023-04-01T16:43:55;4.10;;;1.40;;
61477;SDS011;47345;52.334;10.392;2023-04-01T16:46:34;1.70;;;1.60;;
61477;SDS011;47345;52.334;10.392;2023-04-01T16:49:22;1.50;;;1.40;;
61477;SDS011;47345;52.334;10.392;2023-04-01T16:52:03;1.50;;;1.40;;
61477;SDS011;47345;52.334;10.392;2023-04-01T16:54:45;1.20;;;1.20;;
61477;SDS011;47345;52.334;10.392;2023-04-01T16:57:23;1.90;;;1.60;;
61477;SDS011;47345;52.334;10.392;2023-04-01T17:00:01;1.30;;;1.20;;
61477;SDS011;47345;52.334;10.392;2023-04-01T17:02:47;1.70;;;1.30;;
61477;SDS011;47345;52.334;10.392;2023-04-01T17:08:09;2.00;;;1.80;;
61477;SDS011;47345;52.334;10.392;2023-04-01T17:13:26;1.60;;;1.50;;
61477;SDS011;47345;52.334;10.392;2023-04-01T17:16:07;1.60;;;1.50;;
61477;SDS011;47345;52.334;10.392;2023-04-01T17:18:53;1.60;;;1.50;;
61477;SDS011;47345;52.334;10.392;2023-04-01T17:21:37;1.40;;;1.30;;
61477;SDS011;47345;52.334;10.392;2023-04-01T17:24:20;1.40;;;1.40;;
61477;SDS011;47345;52.334;10.392;2023-04-01T17:26:58;1.60;;;1.50;;
61477;SDS011;47345;52.334;10.392;2023-04-01T17:29:54;2.50;;;1.80;;
61477;SDS011;47345;52.334;10.392;2023-04-01T17:32:35;2.40;;;2.20;;
61477;SDS011;47345;52.334;10.392;2023-04-01T17:35:16;2.10;;;1.90;;
61477;SDS011;47345;52.334;10.392;2023-04-01T17:37:55;2.30;;;2.00;;